sensor_id;sensor_type;location;lat;lon;timestamp;pressure;altitude;pressure_sealevel;temperature;humidity
55733;BME280;41637;52.364;9.910;2022-12-07T00:01:31;100653.98;;;3.27;100.00
55733;BME280;41637;52.364;9.910;2022-12-07T00:04:00;100652.23;;;3.29;100.00
55733;BME280;41637;52.364;9.910;2022-12-07T00:06:33;100650.50;;;3.31;100.00
55733;BME280;41637;52.364;9.910;2022-12-07T00:09:01;100646.19;;;3.32;100.00
55733;BME280;41637;52.364;9.910;2022-12-07T00:11:27;100641.98;;;3.35;100.00
55733;BME280;41637;52.364;9.910;2022-12-07T00:13:56;100638.83;;;3.37;100.00
55733;BME280;41637;52.364;9.910;2022-12-07T00:16:28;100639.55;;;3.39;100.00
55733;BME280;41637;52.364;9.910;2022-12-07T00:18:56;100631.42;;;3.42;100.00
55733;BME280;41637;52.364;9.910;2022-12-07T00:21:28;100627.95;;;3.43;100.00
55733;BME280;41637;52.364;9.910;2022-12-07T00:23:56;100623.77;;;3.45;100.00
55733;BME280;41637;52.364;9.910;2022-12-07T00:26:26;100628.13;;;3.48;100.00
55733;BME280;41637;52.364;9.910;2022-12-07T00:28:56;100624.77;;;3.48;100.00
55733;BME280;41637;52.364;9.910;2022-12-07T00:31:28;100620.90;;;3.50;100.00
55733;BME280;41637;52.364;9.910;2022-12-07T00:33:57;100622.59;;;3.51;100.00
55733;BME280;41637;52.364;9.910;2022-12-07T00:36:24;100620.47;;;3.53;100.00
55733;BME280;41637;52.364;9.910;2022-12-07T00:38:54;100614.40;;;3.55;100.00
55733;BME280;41637;52.364;9.910;2022-12-07T00:41:23;100614.16;;;3.56;100.00
55733;BME280;41637;52.364;9.910;2022-12-07T00:43:50;100610.71;;;3.57;100.00
55733;BME280;41637;52.364;9.910;2022-12-07T00:46:18;100613.06;;;3.58;100.00
55733;BME280;41637;52.364;9.910;2022-12-07T00:48:46;100611.23;;;3.59;100.00
55733;BME280;41637;52.364;9.910;2022-12-07T00:51:14;100609.89;;;3.60;100.00
55733;BME280;41637;52.364;9.910;2022-12-07T00:53:41;100607.73;;;3.63;100.00
55733;BME280;41637;52.364;9.910;2022-12-07T00:56:10;100607.98;;;3.64;100.00
55733;BME280;41637;52.364;9.910;2022-12-07T00:58:37;100604.52;;;3.64;100.00
55733;BME280;41637;52.364;9.910;2022-12-07T01:01:05;100595.80;;;3.63;100.00
55733;BME280;41637;52.364;9.910;2022-12-07T01:03:32;100594.83;;;3.62;100.00
55733;BME280;41637;52.364;9.910;2022-12-07T01:05:59;100597.70;;;3.62;100.00
55733;BME280;41637;52.364;9.910;2022-12-07T01:08:27;100593.48;;;3.62;100.00
55733;BME280;41637;52.364;9.910;2022-12-07T01:11:02;100595.54;;;3.62;100.00
55733;BME280;41637;52.364;9.910;2022-12-07T01:13:29;100588.13;;;3.63;100.00
55733;BME280;41637;52.364;9.910;2022-12-07T01:15:58;100590.04;;;3.63;100.00
55733;BME280;41637;52.364;9.910;2022-12-07T01:18:27;100590.28;;;3.65;100.00
55733;BME280;41637;52.364;9.910;2022-12-07T01:21:05;100591.77;;;3.65;100.00
55733;BME280;41637;52.364;9.910;2022-12-07T01:23:33;100589.02;;;3.65;100.00
55733;BME280;41637;52.364;9.910;2022-12-07T01:26:02;100593.30;;;3.68;100.00
55733;BME280;41637;52.364;9.910;2022-12-07T01:28:29;100591.05;;;3.70;100.00
55733;BME280;41637;52.364;9.910;2022-12-07T01:31:03;100588.95;;;3.70;100.00
55733;BME280;41637;52.364;9.910;2022-12-07T01:33:35;100587.80;;;3.73;100.00
55733;BME280;41637;52.364;9.910;2022-12-07T01:38:43;100584.73;;;3.81;100.00
55733;BME280;41637;52.364;9.910;2022-12-07T01:41:09;100579.66;;;3.84;100.00
55733;BME280;41637;52.364;9.910;2022-12-07T01:43:36;100578.71;;;3.85;100.00
55733;BME280;41637;52.364;9.910;2022-12-07T01:46:04;100576.52;;;3.86;100.00
55733;BME280;41637;52.364;9.910;2022-12-07T01:48:36;100572.81;;;3.87;100.00
55733;BME280;41637;52.364;9.910;2022-12-07T01:51:09;100573.08;;;3.90;100.00
55733;BME280;41637;52.364;9.910;2022-12-07T01:53:43;100572.85;;;3.90;100.00
55733;BME280;41637;52.364;9.910;2022-12-07T01:56:15;100569.11;;;3.93;100.00
55733;BME280;41637;52.364;9.910;2022-12-07T01:58:43;100565.25;;;3.91;100.00
55733;BME280;41637;52.364;9.910;2022-12-07T02:01:11;100563.41;;;3.94;100.00
55733;BME280;41637;52.364;9.910;2022-12-07T02:03:42;100562.38;;;3.96;100.00
55733;BME280;41637;52.364;9.910;2022-12-07T02:06:13;100559.68;;;3.97;100.00
55733;BME280;41637;52.364;9.910;2022-12-07T02:08:42;100549.23;;;3.98;100.00
55733;BME280;41637;52.364;9.910;2022-12-07T02:11:09;100548.82;;;3.99;100.00
55733;BME280;41637;52.364;9.910;2022-12-07T02:13:38;100552.44;;;3.97;100.00
55733;BME280;41637;52.364;9.910;2022-12-07T02:21:53;100556.77;;;3.86;100.00
55733;BME280;41637;52.364;9.910;2022-12-07T02:29:53;100546.48;;;3.84;100.00
55733;BME280;41637;52.364;9.910;2022-12-07T02:32:30;100548.05;;;3.84;100.00
55733;BME280;41637;52.364;9.910;2022-12-07T02:35:06;100544.55;;;3.84;100.00
55733;BME280;41637;52.364;9.910;2022-12-07T02:40:28;100535.61;;;3.80;100.00
55733;BME280;41637;52.364;9.910;2022-12-07T02:43:18;100534.25;;;3.76;100.00
55733;BME280;41637;52.364;9.910;2022-12-07T02:45:46;100532.80;;;3.74;100.00
55733;BME280;41637;52.364;9.910;2022-12-07T02:48:16;100532.41;;;3.73;100.00
55733;BME280;41637;52.364;9.910;2022-12-07T02:50:50;100532.61;;;3.70;100.00
55733;BME280;41637;52.364;9.910;2022-12-07T02:53:38;100531.27;;;3.67;100.00
55733;BME280;41637;52.364;9.910;2022-12-07T03:01:57;100536.85;;;3.54;100.00
55733;BME280;41637;52.364;9.910;2022-12-07T03:10:27;100532.22;;;3.48;100.00
55733;BME280;41637;52.364;9.910;2022-12-07T03:16:12;100525.26;;;3.56;100.00
55733;BME280;41637;52.364;9.910;2022-12-07T03:18:46;100527.34;;;3.61;100.00
55733;BME280;41637;52.364;9.910;2022-12-07T03:21:18;100525.92;;;3.65;100.00
55733;BME280;41637;52.364;9.910;2022-12-07T03:23:51;100527.00;;;3.68;100.00
55733;BME280;41637;52.364;9.910;2022-12-07T03:26:21;100523.26;;;3.72;100.00
55733;BME280;41637;52.364;9.910;2022-12-07T03:28:52;100512.23;;;3.73;100.00
55733;BME280;41637;52.364;9.910;2022-12-07T03:31:24;100508.74;;;3.75;100.00
55733;BME280;41637;52.364;9.910;2022-12-07T03:33:59;100502.67;;;3.79;100.00
55733;BME280;41637;52.364;9.910;2022-12-07T03:36:47;100505.36;;;3.78;100.00
55733;BME280;41637;52.364;9.910;2022-12-07T03:39:33;100518.79;;;3.76;100.00
55733;BME280;41637;52.364;9.910;2022-12-07T03:42:02;100513.30;;;3.77;100.00
55733;BME280;41637;52.364;9.910;2022-12-07T03:44:31;100513.08;;;3.78;100.00
55733;BME280;41637;52.364;9.910;2022-12-07T03:47:16;100513.91;;;3.78;100.00
55733;BME280;41637;52.364;9.910;2022-12-07T03:49:56;100510.63;;;3.80;100.00
55733;BME280;41637;52.364;9.910;2022-12-07T03:52:39;100512.11;;;3.79;100.00
55733;BME280;41637;52.364;9.910;2022-12-07T03:55:29;100514.84;;;3.79;100.00
55733;BME280;41637;52.364;9.910;2022-12-07T03:58:01;100517.73;;;3.79;100.00
55733;BME280;41637;52.364;9.910;2022-12-07T04:00:29;100517.91;;;3.79;100.00
55733;BME280;41637;52.364;9.910;2022-12-07T04:02:56;100522.59;;;3.77;100.00
55733;BME280;41637;52.364;9.910;2022-12-07T04:05:23;100523.17;;;3.76;100.00
55733;BME280;41637;52.364;9.910;2022-12-07T04:07:49;100531.60;;;3.74;100.00
55733;BME280;41637;52.364;9.910;2022-12-07T04:10:17;100530.38;;;3.72;100.00
55733;BME280;41637;52.364;9.910;2022-12-07T04:12:43;100530.05;;;3.70;99.98
55733;BME280;41637;52.364;9.910;2022-12-07T04:15:10;100525.02;;;3.65;99.99
55733;BME280;41637;52.364;9.910;2022-12-07T04:17:37;100522.52;;;3.62;99.95
55733;BME280;41637;52.364;9.910;2022-12-07T04:20:04;100528.50;;;3.61;99.98
55733;BME280;41637;52.364;9.910;2022-12-07T04:22:31;100531.25;;;3.58;99.96
55733;BME280;41637;52.364;9.910;2022-12-07T04:24:58;100530.69;;;3.52;99.94
55733;BME280;41637;52.364;9.910;2022-12-07T04:27:24;100534.61;;;3.45;100.00
55733;BME280;41637;52.364;9.910;2022-12-07T04:29:51;100533.44;;;3.43;100.00
55733;BME280;41637;52.364;9.910;2022-12-07T04:32:17;100533.67;;;3.38;100.00
55733;BME280;41637;52.364;9.910;2022-12-07T04:34:43;100526.78;;;3.37;100.00
55733;BME280;41637;52.364;9.910;2022-12-07T04:37:10;100530.59;;;3.35;100.00
55733;BME280;41637;52.364;9.910;2022-12-07T04:39:36;100528.23;;;3.36;100.00
55733;BME280;41637;52.364;9.910;2022-12-07T04:42:03;100533.58;;;3.37;100.00
55733;BME280;41637;52.364;9.910;2022-12-07T04:44:30;100529.02;;;3.37;100.00
55733;BME280;41637;52.364;9.910;2022-12-07T04:46:56;100518.67;;;3.38;100.00
55733;BME280;41637;52.364;9.910;2022-12-07T04:49:24;100522.89;;;3.41;100.00
55733;BME280;41637;52.364;9.910;2022-12-07T04:51:51;100521.51;;;3.41;100.00
55733;BME280;41637;52.364;9.910;2022-12-07T04:54:18;100517.60;;;3.42;100.00
55733;BME280;41637;52.364;9.910;2022-12-07T04:56:45;100512.80;;;3.43;100.00
55733;BME280;41637;52.364;9.910;2022-12-07T04:59:12;100514.06;;;3.42;100.00
55733;BME280;41637;52.364;9.910;2022-12-07T05:01:39;100508.74;;;3.43;100.00
55733;BME280;41637;52.364;9.910;2022-12-07T05:04:07;100510.95;;;3.44;100.00
55733;BME280;41637;52.364;9.910;2022-12-07T05:06:34;100512.59;;;3.45;100.00
55733;BME280;41637;52.364;9.910;2022-12-07T05:09:01;100516.98;;;3.45;100.00
55733;BME280;41637;52.364;9.910;2022-12-07T05:11:27;100517.17;;;3.47;99.98
55733;BME280;41637;52.364;9.910;2022-12-07T05:14:20;100512.04;;;3.47;99.88
55733;BME280;41637;52.364;9.910;2022-12-07T05:16:49;100514.92;;;3.49;99.78
55733;BME280;41637;52.364;9.910;2022-12-07T05:19:18;100509.86;;;3.46;99.53
55733;BME280;41637;52.364;9.910;2022-12-07T05:21:45;100513.27;;;3.45;99.66
55733;BME280;41637;52.364;9.910;2022-12-07T05:24:13;100515.54;;;3.43;99.65
55733;BME280;41637;52.364;9.910;2022-12-07T05:26:40;100518.10;;;3.46;99.39
55733;BME280;41637;52.364;9.910;2022-12-07T05:29:07;100511.59;;;3.47;99.52
55733;BME280;41637;52.364;9.910;2022-12-07T05:31:34;100516.42;;;3.45;99.50
55733;BME280;41637;52.364;9.910;2022-12-07T05:34:00;100522.89;;;3.41;99.28
55733;BME280;41637;52.364;9.910;2022-12-07T05:36:27;100520.95;;;3.41;99.45
55733;BME280;41637;52.364;9.910;2022-12-07T05:38:54;100518.34;;;3.41;99.07
55733;BME280;41637;52.364;9.910;2022-12-07T05:41:21;100517.42;;;3.40;98.77
55733;BME280;41637;52.364;9.910;2022-12-07T05:44:06;100517.22;;;3.38;98.72
55733;BME280;41637;52.364;9.910;2022-12-07T05:46:33;100510.39;;;3.34;98.36
55733;BME280;41637;52.364;9.910;2022-12-07T05:49:00;100505.36;;;3.32;98.44
55733;BME280;41637;52.364;9.910;2022-12-07T05:51:27;100505.91;;;3.32;98.29
55733;BME280;41637;52.364;9.910;2022-12-07T05:53:53;100504.80;;;3.30;98.28
55733;BME280;41637;52.364;9.910;2022-12-07T05:56:20;100513.89;;;3.26;98.18
55733;BME280;41637;52.364;9.910;2022-12-07T05:58:46;100514.05;;;3.24;98.26
55733;BME280;41637;52.364;9.910;2022-12-07T06:01:32;100512.36;;;3.21;98.61
55733;BME280;41637;52.364;9.910;2022-12-07T06:03:58;100511.74;;;3.20;98.46
55733;BME280;41637;52.364;9.910;2022-12-07T06:06:24;100513.20;;;3.18;98.44
55733;BME280;41637;52.364;9.910;2022-12-07T06:08:51;100509.55;;;3.17;98.62
55733;BME280;41637;52.364;9.910;2022-12-07T06:11:17;100512.66;;;3.16;98.59
55733;BME280;41637;52.364;9.910;2022-12-07T06:14:03;100521.58;;;3.18;99.06
55733;BME280;41637;52.364;9.910;2022-12-07T06:16:29;100515.14;;;3.15;98.86
55733;BME280;41637;52.364;9.910;2022-12-07T06:18:56;100518.64;;;3.18;98.85
55733;BME280;41637;52.364;9.910;2022-12-07T06:21:22;100515.73;;;3.20;98.57
55733;BME280;41637;52.364;9.910;2022-12-07T06:23:49;100511.88;;;3.21;98.48
55733;BME280;41637;52.364;9.910;2022-12-07T06:26:15;100512.59;;;3.25;98.53
55733;BME280;41637;52.364;9.910;2022-12-07T06:28:42;100513.27;;;3.25;98.27
55733;BME280;41637;52.364;9.910;2022-12-07T06:31:08;100512.08;;;3.25;98.36
55733;BME280;41637;52.364;9.910;2022-12-07T06:33:39;100516.77;;;3.23;98.11
55733;BME280;41637;52.364;9.910;2022-12-07T06:36:07;100515.84;;;3.23;97.72
55733;BME280;41637;52.364;9.910;2022-12-07T06:38:33;100512.67;;;3.26;97.94
55733;BME280;41637;52.364;9.910;2022-12-07T06:41:00;100516.18;;;3.26;97.74
55733;BME280;41637;52.364;9.910;2022-12-07T06:43:26;100510.83;;;3.25;97.90
55733;BME280;41637;52.364;9.910;2022-12-07T06:45:53;100515.73;;;3.23;97.78
55733;BME280;41637;52.364;9.910;2022-12-07T06:48:20;100519.17;;;3.19;97.87
55733;BME280;41637;52.364;9.910;2022-12-07T06:50:47;100520.70;;;3.14;97.99
55733;BME280;41637;52.364;9.910;2022-12-07T06:53:20;100521.12;;;3.13;98.25
55733;BME280;41637;52.364;9.910;2022-12-07T06:55:46;100518.08;;;3.16;97.95
55733;BME280;41637;52.364;9.910;2022-12-07T06:58:13;100512.30;;;3.20;97.96
55733;BME280;41637;52.364;9.910;2022-12-07T07:00:39;100518.50;;;3.19;97.96
55733;BME280;41637;52.364;9.910;2022-12-07T07:03:06;100515.77;;;3.20;97.95
55733;BME280;41637;52.364;9.910;2022-12-07T07:05:32;100516.08;;;3.19;97.83
55733;BME280;41637;52.364;9.910;2022-12-07T07:07:58;100515.33;;;3.19;97.54
55733;BME280;41637;52.364;9.910;2022-12-07T07:10:45;100519.38;;;3.17;97.43
55733;BME280;41637;52.364;9.910;2022-12-07T07:13:11;100519.98;;;3.16;97.56
55733;BME280;41637;52.364;9.910;2022-12-07T07:15:38;100515.40;;;3.17;97.83
55733;BME280;41637;52.364;9.910;2022-12-07T07:18:05;100518.93;;;3.16;97.80
55733;BME280;41637;52.364;9.910;2022-12-07T07:20:33;100525.23;;;3.12;97.91
55733;BME280;41637;52.364;9.910;2022-12-07T07:23:00;100527.41;;;3.07;98.08
55733;BME280;41637;52.364;9.910;2022-12-07T07:25:26;100532.39;;;3.04;98.31
55733;BME280;41637;52.364;9.910;2022-12-07T07:27:52;100537.08;;;3.04;98.48
55733;BME280;41637;52.364;9.910;2022-12-07T07:30:19;100534.58;;;3.00;98.60
55733;BME280;41637;52.364;9.910;2022-12-07T07:32:45;100537.92;;;2.98;98.59
55733;BME280;41637;52.364;9.910;2022-12-07T07:35:12;100541.29;;;2.98;98.70
55733;BME280;41637;52.364;9.910;2022-12-07T07:37:40;100544.97;;;2.98;98.69
55733;BME280;41637;52.364;9.910;2022-12-07T07:40:08;100543.22;;;2.97;98.84
55733;BME280;41637;52.364;9.910;2022-12-07T07:42:35;100547.69;;;2.96;98.93
55733;BME280;41637;52.364;9.910;2022-12-07T07:45:02;100547.42;;;2.95;98.75
55733;BME280;41637;52.364;9.910;2022-12-07T07:47:29;100550.59;;;2.97;98.83
55733;BME280;41637;52.364;9.910;2022-12-07T07:49:56;100549.11;;;3.00;98.85
55733;BME280;41637;52.364;9.910;2022-12-07T07:52:23;100548.92;;;3.00;98.86
55733;BME280;41637;52.364;9.910;2022-12-07T07:54:49;100545.93;;;3.02;98.71
55733;BME280;41637;52.364;9.910;2022-12-07T07:57:17;100546.29;;;3.02;98.75
55733;BME280;41637;52.364;9.910;2022-12-07T07:59:43;100548.34;;;3.03;98.45
55733;BME280;41637;52.364;9.910;2022-12-07T08:02:18;100552.63;;;3.06;98.35
55733;BME280;41637;52.364;9.910;2022-12-07T08:04:45;100551.27;;;3.05;98.35
55733;BME280;41637;52.364;9.910;2022-12-07T08:07:13;100552.52;;;3.05;98.30
55733;BME280;41637;52.364;9.910;2022-12-07T08:09:40;100555.09;;;3.04;98.56
55733;BME280;41637;52.364;9.910;2022-12-07T08:12:07;100551.70;;;3.05;98.57
55733;BME280;41637;52.364;9.910;2022-12-07T08:14:34;100552.20;;;3.05;98.58
55733;BME280;41637;52.364;9.910;2022-12-07T08:17:01;100554.45;;;3.03;98.87
55733;BME280;41637;52.364;9.910;2022-12-07T08:19:27;100552.50;;;3.03;99.00
55733;BME280;41637;52.364;9.910;2022-12-07T08:21:55;100558.17;;;3.05;98.93
55733;BME280;41637;52.364;9.910;2022-12-07T08:24:23;100555.11;;;3.08;98.95
55733;BME280;41637;52.364;9.910;2022-12-07T08:26:49;100557.64;;;3.11;98.81
55733;BME280;41637;52.364;9.910;2022-12-07T08:29:17;100551.08;;;3.12;98.70
55733;BME280;41637;52.364;9.910;2022-12-07T08:31:43;100549.65;;;3.17;98.52
55733;BME280;41637;52.364;9.910;2022-12-07T08:34:11;100557.78;;;3.17;98.26
55733;BME280;41637;52.364;9.910;2022-12-07T08:36:37;100558.71;;;3.19;98.10
55733;BME280;41637;52.364;9.910;2022-12-07T08:39:04;100557.46;;;3.19;98.02
55733;BME280;41637;52.364;9.910;2022-12-07T08:41:51;100555.16;;;3.23;98.11
55733;BME280;41637;52.364;9.910;2022-12-07T08:44:17;100551.75;;;3.24;98.01
55733;BME280;41637;52.364;9.910;2022-12-07T08:47:00;100555.77;;;3.27;97.76
55733;BME280;41637;52.364;9.910;2022-12-07T08:49:36;100566.89;;;3.30;97.44
55733;BME280;41637;52.364;9.910;2022-12-07T08:52:04;100561.09;;;3.34;97.25
55733;BME280;41637;52.364;9.910;2022-12-07T08:54:32;100565.95;;;3.35;97.18
55733;BME280;41637;52.364;9.910;2022-12-07T08:57:00;100567.63;;;3.35;97.01
55733;BME280;41637;52.364;9.910;2022-12-07T08:59:27;100565.29;;;3.38;97.20
55733;BME280;41637;52.364;9.910;2022-12-07T09:01:54;100568.16;;;3.41;96.96
55733;BME280;41637;52.364;9.910;2022-12-07T09:04:21;100567.08;;;3.46;96.89
55733;BME280;41637;52.364;9.910;2022-12-07T09:06:47;100568.41;;;3.49;96.88
55733;BME280;41637;52.364;9.910;2022-12-07T09:09:15;100568.66;;;3.50;96.57
55733;BME280;41637;52.364;9.910;2022-12-07T09:11:41;100567.34;;;3.51;96.57
55733;BME280;41637;52.364;9.910;2022-12-07T09:14:08;100565.35;;;3.56;96.75
55733;BME280;41637;52.364;9.910;2022-12-07T09:16:34;100570.23;;;3.60;96.51
55733;BME280;41637;52.364;9.910;2022-12-07T09:19:01;100574.07;;;3.64;96.27
55733;BME280;41637;52.364;9.910;2022-12-07T09:21:28;100571.29;;;3.64;96.07
55733;BME280;41637;52.364;9.910;2022-12-07T09:23:54;100568.36;;;3.65;96.21
55733;BME280;41637;52.364;9.910;2022-12-07T09:26:20;100571.27;;;3.68;95.96
55733;BME280;41637;52.364;9.910;2022-12-07T09:28:47;100577.11;;;3.63;95.49
55733;BME280;41637;52.364;9.910;2022-12-07T09:31:13;100566.09;;;3.63;95.46
55733;BME280;41637;52.364;9.910;2022-12-07T09:33:58;100569.02;;;3.64;95.17
55733;BME280;41637;52.364;9.910;2022-12-07T09:36:26;100560.52;;;3.65;95.23
55733;BME280;41637;52.364;9.910;2022-12-07T09:38:53;100555.33;;;3.66;94.73
55733;BME280;41637;52.364;9.910;2022-12-07T09:41:21;100554.06;;;3.69;94.71
55733;BME280;41637;52.364;9.910;2022-12-07T09:43:49;100559.23;;;3.70;94.24
55733;BME280;41637;52.364;9.910;2022-12-07T09:46:18;100557.40;;;3.67;93.46
55733;BME280;41637;52.364;9.910;2022-12-07T09:48:47;100561.61;;;3.73;93.10
55733;BME280;41637;52.364;9.910;2022-12-07T09:51:19;100557.79;;;3.77;92.83
55733;BME280;41637;52.364;9.910;2022-12-07T09:53:52;100558.52;;;3.86;92.55
55733;BME280;41637;52.364;9.910;2022-12-07T09:56:20;100558.71;;;3.92;91.89
55733;BME280;41637;52.364;9.910;2022-12-07T09:58:49;100555.52;;;4.02;91.66
55733;BME280;41637;52.364;9.910;2022-12-07T10:01:21;100554.62;;;4.11;91.05
55733;BME280;41637;52.364;9.910;2022-12-07T10:04:49;100553.08;;;4.20;90.80
55733;BME280;41637;52.364;9.910;2022-12-07T10:06:43;100549.61;;;4.29;90.09
55733;BME280;41637;52.364;9.910;2022-12-07T10:09:15;100546.42;;;4.37;90.14
55733;BME280;41637;52.364;9.910;2022-12-07T10:12:04;100546.59;;;4.42;89.52
55733;BME280;41637;52.364;9.910;2022-12-07T10:14:33;100543.73;;;4.48;89.82
55733;BME280;41637;52.364;9.910;2022-12-07T10:25:33;100552.13;;;4.91;87.72
55733;BME280;41637;52.364;9.910;2022-12-07T10:28:17;100540.21;;;4.87;86.19
55733;BME280;41637;52.364;9.910;2022-12-07T10:30:53;100543.65;;;4.81;86.05
55733;BME280;41637;52.364;9.910;2022-12-07T10:33:36;100544.73;;;4.77;86.25
55733;BME280;41637;52.364;9.910;2022-12-07T10:39:20;100540.44;;;4.63;86.46
55733;BME280;41637;52.364;9.910;2022-12-07T10:42:01;100541.41;;;4.62;87.24
55733;BME280;41637;52.364;9.910;2022-12-07T10:44:33;100538.42;;;4.58;87.11
55733;BME280;41637;52.364;9.910;2022-12-07T10:58:39;100530.48;;;4.51;89.36
55733;BME280;41637;52.364;9.910;2022-12-07T11:01:25;100531.73;;;4.39;89.58
55733;BME280;41637;52.364;9.910;2022-12-07T11:10:04;100520.16;;;4.28;91.21
55733;BME280;41637;52.364;9.910;2022-12-07T11:15:46;100506.90;;;4.23;90.64
55733;BME280;41637;52.364;9.910;2022-12-07T11:19:05;100515.08;;;4.28;90.85
55733;BME280;41637;52.364;9.910;2022-12-07T11:24:10;100521.02;;;4.34;90.84
55733;BME280;41637;52.364;9.910;2022-12-07T11:29:32;100508.02;;;4.38;90.61
55733;BME280;41637;52.364;9.910;2022-12-07T11:37:58;100519.26;;;4.24;89.04
55733;BME280;41637;52.364;9.910;2022-12-07T11:40:35;100506.04;;;4.16;88.51
55733;BME280;41637;52.364;9.910;2022-12-07T11:43:26;100501.23;;;4.09;88.19
55733;BME280;41637;52.364;9.910;2022-12-07T11:46:07;100503.15;;;3.99;88.68
55733;BME280;41637;52.364;9.910;2022-12-07T11:51:10;100498.46;;;3.89;88.09
55733;BME280;41637;52.364;9.910;2022-12-07T11:56:17;100497.42;;;3.79;89.26
55733;BME280;41637;52.364;9.910;2022-12-07T11:58:48;100497.80;;;3.78;89.70
55733;BME280;41637;52.364;9.910;2022-12-07T12:06:39;100493.63;;;4.15;89.64
55733;BME280;41637;52.364;9.910;2022-12-07T12:17:57;100475.61;;;5.34;85.28
55733;BME280;41637;52.364;9.910;2022-12-07T12:20:32;100475.37;;;5.61;84.63
55733;BME280;41637;52.364;9.910;2022-12-07T12:25:50;100469.48;;;6.67;80.77
55733;BME280;41637;52.364;9.910;2022-12-07T12:28:23;100472.19;;;6.80;79.33
55733;BME280;41637;52.364;9.910;2022-12-07T12:31:11;100469.79;;;6.94;78.59
55733;BME280;41637;52.364;9.910;2022-12-07T12:33:43;100471.07;;;6.86;78.06
55733;BME280;41637;52.364;9.910;2022-12-07T12:54:30;100444.57;;;5.12;85.81
55733;BME280;41637;52.364;9.910;2022-12-07T13:05:18;100444.07;;;4.94;87.00
55733;BME280;41637;52.364;9.910;2022-12-07T13:15:41;100438.38;;;4.90;86.05
55733;BME280;41637;52.364;9.910;2022-12-07T13:26:35;100429.83;;;5.00;84.83
55733;BME280;41637;52.364;9.910;2022-12-07T13:29:20;100434.66;;;5.08;84.36
55733;BME280;41637;52.364;9.910;2022-12-07T13:31:57;100430.98;;;5.08;83.33
55733;BME280;41637;52.364;9.910;2022-12-07T13:34:41;100429.66;;;4.96;83.30
55733;BME280;41637;52.364;9.910;2022-12-07T13:39:49;100421.34;;;4.91;84.50
55733;BME280;41637;52.364;9.910;2022-12-07T13:42:26;100419.65;;;4.88;84.51
55733;BME280;41637;52.364;9.910;2022-12-07T13:44:54;100424.73;;;4.86;84.85
55733;BME280;41637;52.364;9.910;2022-12-07T13:49:55;100420.88;;;4.79;85.45
55733;BME280;41637;52.364;9.910;2022-12-07T13:57:29;100416.61;;;4.67;85.67
55733;BME280;41637;52.364;9.910;2022-12-07T14:00:03;100413.94;;;4.67;86.07
55733;BME280;41637;52.364;9.910;2022-12-07T14:02:34;100410.49;;;4.63;85.99
55733;BME280;41637;52.364;9.910;2022-12-07T14:07:57;100413.48;;;4.59;86.38
55733;BME280;41637;52.364;9.910;2022-12-07T14:10:39;100412.69;;;4.56;86.49
55733;BME280;41637;52.364;9.910;2022-12-07T14:15:51;100411.84;;;4.46;86.23
55733;BME280;41637;52.364;9.910;2022-12-07T14:18:27;100421.25;;;4.43;86.31
55733;BME280;41637;52.364;9.910;2022-12-07T14:23:38;100410.19;;;4.43;86.40
55733;BME280;41637;52.364;9.910;2022-12-07T14:26:07;100412.10;;;4.42;86.55
55733;BME280;41637;52.364;9.910;2022-12-07T14:28:36;100414.42;;;4.41;86.56
55733;BME280;41637;52.364;9.910;2022-12-07T14:31:14;100409.99;;;4.42;86.48
55733;BME280;41637;52.364;9.910;2022-12-07T14:33:50;100411.35;;;4.40;86.47
55733;BME280;41637;52.364;9.910;2022-12-07T14:36:16;100409.89;;;4.39;86.86
55733;BME280;41637;52.364;9.910;2022-12-07T14:38:43;100418.86;;;4.33;86.91
55733;BME280;41637;52.364;9.910;2022-12-07T14:41:14;100414.74;;;4.32;87.12
55733;BME280;41637;52.364;9.910;2022-12-07T14:44:12;100413.72;;;4.30;87.30
55733;BME280;41637;52.364;9.910;2022-12-07T14:46:59;100413.34;;;4.30;87.25
55733;BME280;41637;52.364;9.910;2022-12-07T14:49:45;100414.48;;;4.27;87.32
55733;BME280;41637;52.364;9.910;2022-12-07T14:52:24;100411.91;;;4.28;87.36
55733;BME280;41637;52.364;9.910;2022-12-07T14:55:33;100410.89;;;4.24;87.33
55733;BME280;41637;52.364;9.910;2022-12-07T14:57:59;100408.40;;;4.21;87.50
55733;BME280;41637;52.364;9.910;2022-12-07T15:00:27;100410.98;;;4.18;87.44
55733;BME280;41637;52.364;9.910;2022-12-07T15:02:54;100413.39;;;4.10;87.39
55733;BME280;41637;52.364;9.910;2022-12-07T15:05:21;100416.27;;;4.05;87.65
55733;BME280;41637;52.364;9.910;2022-12-07T15:07:48;100423.20;;;3.99;87.91
55733;BME280;41637;52.364;9.910;2022-12-07T15:10:24;100421.83;;;3.95;88.15
55733;BME280;41637;52.364;9.910;2022-12-07T15:13:01;100421.09;;;3.89;88.36
55733;BME280;41637;52.364;9.910;2022-12-07T15:15:50;100425.59;;;3.86;88.66
55733;BME280;41637;52.364;9.910;2022-12-07T15:18:18;100423.14;;;3.84;88.63
55733;BME280;41637;52.364;9.910;2022-12-07T15:20:45;100420.64;;;3.81;88.97
55733;BME280;41637;52.364;9.910;2022-12-07T15:23:12;100417.19;;;3.78;89.08
55733;BME280;41637;52.364;9.910;2022-12-07T15:25:44;100419.34;;;3.76;89.26
55733;BME280;41637;52.364;9.910;2022-12-07T15:28:12;100420.89;;;3.72;89.46
55733;BME280;41637;52.364;9.910;2022-12-07T15:30:39;100420.20;;;3.70;89.63
55733;BME280;41637;52.364;9.910;2022-12-07T15:33:06;100421.43;;;3.67;89.77
55733;BME280;41637;52.364;9.910;2022-12-07T15:35:32;100419.45;;;3.66;90.16
55733;BME280;41637;52.364;9.910;2022-12-07T15:37:59;100417.42;;;3.63;90.37
55733;BME280;41637;52.364;9.910;2022-12-07T15:40:25;100416.67;;;3.64;90.50
55733;BME280;41637;52.364;9.910;2022-12-07T15:42:52;100418.55;;;3.64;90.32
55733;BME280;41637;52.364;9.910;2022-12-07T15:45:18;100421.94;;;3.64;90.47
55733;BME280;41637;52.364;9.910;2022-12-07T15:47:44;100423.91;;;3.61;90.74
55733;BME280;41637;52.364;9.910;2022-12-07T15:50:31;100420.14;;;3.62;90.85
55733;BME280;41637;52.364;9.910;2022-12-07T15:52:57;100420.16;;;3.62;90.54
55733;BME280;41637;52.364;9.910;2022-12-07T15:55:24;100422.78;;;3.62;90.63